Terminal Aerodrome Forecast
Issued by NWS

Home | Current Version | Previous Version | Text Only | Print | Product List | Glossary Off
Versions: 1 2 3 4 5 6 7 8 9 10 11 12 13 14 15 16 17 18 19 20 21 22 23 24 25

500
FTUS43 KABR 111836 AAA
TAFMBG
TAF AMD
KMBG 111836Z 1119/1218 15009KT 1SM -SN BR BKN028 OVC040
      TEMPO 1119/1120 1SM -SN OVC010
     FM112000 08009KT 1 1/2SM -SN OVC010
     FM120400 03008KT 6SM BR OVC011
     FM121600 02011KT 6SM BR SCT011 OVC050=

USA.gov is the U.S. government's official web portal to all federal, state and local government web resources and services.